Latest Weather Observations for Cape Bruny AWS

IDT60901

Issued at 10:35 pm EDT Thursday 27 November 2014 (issued every 10 minutes, with the page automatically refreshed every 10 minutes)

About weather observations | Map of Hobart area stations | Latest observations for Hobart area | Other Formats
Station Details ID: 094198 Name: CAPE BRUNY (CAPE BRUNY) Lat: -43.49 Lon: 147.14 Height: 59.7 m
Data from the previous 72 hours. | See also: Recent months at Cape Bruny AWS
Date/Time
EDT
Tmp

°C
App
Tmp
°C
Dew
Point
°C
Rel
Hum
%
Delta-T

°C
Wind Press
QNH
hPa
Press
MSL
hPa
Rain
since
9 am
mm
Dir
 
Spd
km/h
Gust
km/h
Spd
kts
Gust
kts
27/10:30pm 10.8 5.1 5.1 68 2.6 WSW 24 32 13 17 1024.2 1024.2 0.0
27/10:00pm 10.8 4.3 4.5 65 2.8 WSW 28 35 15 19 1024.3 1024.3 0.0
27/09:30pm 10.8 3.9 4.5 65 2.8 WSW 30 37 16 20 1024.3 1024.3 0.0
27/09:00pm 10.8 4.3 4.9 67 2.7 WSW 28 37 15 20 1024.0 1024.0 0.0
27/08:30pm 10.8 4.5 5.8 71 2.3 WSW 28 35 15 19 1024.1 1024.1 0.0
27/08:00pm 10.6 4.9 6.6 76 1.9 WSW 26 39 14 21 1024.0 1024.0 0.0
27/07:30pm 11.2 4.2 6.7 74 2.1 SW 33 43 18 23 1023.8 1023.8 0.0
27/07:00pm 11.5 4.3 6.0 69 2.6 WSW 33 46 18 25 1023.9 1023.9 0.0
27/06:30pm 12.3 5.1 6.1 66 2.9 WSW 33 44 18 24 1023.9 1023.9 0.0
27/06:00pm 12.5 5.0 6.1 65 3.0 WSW 35 48 19 26 1023.9 1023.9 0.0
27/05:30pm 12.3 4.0 5.9 65 3.0 WSW 39 48 21 26 1023.9 1023.9 0.0
27/05:00pm 12.5 4.2 5.9 64 3.1 WSW 39 52 21 28 1023.9 1023.9 0.0
27/04:30pm 12.6 4.2 5.5 62 3.3 WSW 39 48 21 26 1024.0 1024.0 0.0
27/04:00pm 12.5 3.5 6.5 67 2.8 WSW 43 54 23 29 1023.9 1023.9 0.0
27/03:30pm 12.9 4.6 6.3 64 3.1 WSW 39 50 21 27 1024.0 1024.0 0.0
27/03:00pm 12.0 2.9 6.1 67 2.8 WSW 43 54 23 29 1024.1 1024.1 0.0
27/02:30pm 12.3 3.0 5.9 65 3.0 WSW 44 59 24 32 1024.2 1024.2 0.0
27/02:00pm 12.9 4.2 5.8 62 3.3 WSW 41 50 22 27 1024.0 1024.0 0.0
27/01:30pm 13.2 3.9 5.1 58 3.8 WSW 43 54 23 29 1023.7 1023.7 0.0
27/01:00pm 13.8 5.1 6.2 60 3.6 WSW 41 52 22 28 1023.8 1023.8 0.0
27/12:30pm 12.9 4.6 6.0 63 3.3 WSW 39 50 21 27 1023.9 1023.9 0.0
27/12:00pm 13.0 4.4 4.9 58 3.7 WSW 39 50 21 27 1023.8 1023.8 0.0
27/11:30am 12.3 4.7 5.7 64 3.1 WSW 35 44 19 24 1023.8 1023.8 0.0
27/11:00am 11.4 3.9 6.1 70 2.5 W 35 50 19 27 1023.7 1023.7 0.0
27/10:30am 11.6 3.3 6.1 69 2.6 W 39 46 21 25 1023.8 1023.8 0.0
27/10:04am 11.2 2.1 6.1 71 2.4 W 43 65 23 35 1023.6 1023.6 0.0
27/10:00am 11.3 2.6 6.0 70 2.5 W 41 54 22 29 1023.7 1023.7 0.0
27/09:48am 11.3 4.1 5.2 66 2.8 W 32 54 17 29 1023.7 1023.7 0.0
27/09:30am 11.4 3.6 5.1 65 2.9 W 35 50 19 27 1023.6 1023.6 0.0
27/09:00am 11.2 2.6 4.9 65 2.9 W 39 57 21 31 1023.5 1023.5 2.6
27/08:58am 11.1 2.5 4.6 64 2.9 W 39 57 21 31 1023.4 1023.4 2.6
27/08:30am 11.3 2.8 5.0 65 2.9 W 39 50 21 27 1023.2 1023.2 2.6
27/08:00am 10.8 1.3 4.0 63 3.0 WSW 43 54 23 29 1022.9 1022.9 2.6
27/07:30am 11.0 1.7 4.9 66 2.8 WSW 43 56 23 30 1022.6 1022.6 2.6
27/07:00am 10.9 1.8 5.9 71 2.3 WSW 43 57 23 31 1022.2 1022.2 2.6
27/06:30am 10.6 1.8 5.4 70 2.4 W 41 57 22 31 1021.8 1021.8 2.6
27/06:00am 10.6 1.6 4.7 67 2.7 WSW 41 54 22 29 1021.4 1021.4 2.6
27/05:30am 10.7 1.1 4.6 66 2.8 WSW 44 57 24 31 1021.2 1021.2 2.6
27/05:00am 10.6 1.6 4.5 66 2.7 W 41 50 22 27 1020.9 1020.9 2.6
27/04:30am 10.3 0.4 4.9 69 2.4 WSW 46 63 25 34 1020.4 1020.4 2.6
27/04:00am 10.6 2.0 4.9 68 2.6 WSW 39 59 21 32 1020.3 1020.3 2.6
27/03:56am 10.7 2.9 4.8 67 2.7 W 35 54 19 29 1020.3 1020.3 2.6
27/03:30am 10.4 2.4 5.6 72 2.2 W 37 48 20 26 1020.2 1020.2 2.6
27/03:00am 10.3 0.0 4.5 67 2.6 W 48 61 26 33 1020.3 1020.3 2.6
27/02:43am 10.0 0.5 4.8 70 2.3 WSW 44 63 24 34 1020.3 1020.3 2.6
27/02:30am 10.5 2.3 4.9 68 2.5 W 37 52 20 28 1020.3 1020.3 2.6
27/02:00am 10.5 2.4 5.1 69 2.4 W 37 50 20 27 1020.3 1020.3 2.6
27/01:47am 10.6 2.4 4.9 68 2.6 W 37 56 20 30 1020.3 1020.3 2.6
27/01:30am 10.4 1.9 5.0 69 2.5 WSW 39 50 21 27 1020.5 1020.5 2.6
27/01:00am 10.5 0.5 4.2 65 2.8 W 46 61 25 33 1020.4 1020.4 2.6
27/12:48am 10.4 -0.4 4.3 66 2.7 WSW 50 70 27 38 1020.6 1020.6 2.6
27/12:30am 10.3 -0.7 5.1 70 2.4 WSW 52 69 28 37 1020.6 1020.6 2.6
27/12:00am 10.4 0.7 5.6 72 2.2 W 46 65 25 35 1020.4 1020.4 2.6
 
Date/Time
EDT
Tmp

°C
App
Tmp
°C
Dew
Point
°C
Rel
Hum
%
Delta-T

°C
Wind Press
QNH
hPa
Press
MSL
hPa
Rain
since
9 am
mm
Dir
 
Spd
km/h
Gust
km/h
Spd
kts
Gust
kts
26/11:32pm 10.7 1.6 4.2 64 2.9 W 41 59 22 32 1020.2 1020.2 2.6
26/11:30pm 10.8 1.8 4.3 64 2.9 W 41 50 22 27 1020.3 1020.3 2.6
26/11:00pm 10.7 0.0 4.4 65 2.8 WSW 50 69 27 37 1020.2 1020.2 2.6
26/10:30pm 10.9 1.3 6.1 72 2.2 WSW 46 67 25 36 1020.0 1020.0 2.6
26/10:28pm 11.0 1.9 6.6 74 2.1 WSW 44 63 24 34 1020.1 1020.1 2.6
26/10:00pm 10.9 1.9 6.6 75 2.0 W 43 57 23 31 1020.0 1020.0 2.6
26/09:30pm 10.7 2.6 6.8 77 1.8 W 39 48 21 26 1019.7 1019.7 2.6
26/09:00pm 10.8 2.1 6.2 73 2.1 W 41 54 22 29 1019.4 1019.4 2.6
26/08:31pm 10.7 1.4 6.1 73 2.1 W 44 63 24 34 1018.8 1018.9 2.6
26/08:30pm 10.8 1.6 6.4 74 2.1 W 44 57 24 31 1018.8 1018.9 2.6
26/08:00pm 10.8 2.1 6.0 72 2.2 W 41 56 22 30 1018.8 1018.9 2.6
26/07:30pm 11.0 2.0 6.4 73 2.2 W 43 57 23 31 1018.4 1018.4 2.6
26/07:00pm 10.3 0.6 7.7 84 1.2 WSW 48 63 26 34 1018.0 1018.0 2.6
26/06:53pm 10.6 1.8 7.3 80 1.6 W 43 63 23 34 1017.8 1017.8 2.6
26/06:30pm 10.5 1.7 7.4 81 1.5 W 43 56 23 30 1017.4 1017.4 2.6
26/06:18pm 10.3 1.6 7.5 83 1.3 WSW 43 61 23 33 1017.4 1017.4 2.6
26/06:00pm 12.5 1.4 6.5 67 2.9 W 54 65 29 35 1017.3 1017.3 2.4
26/05:50pm 12.6 3.1 6.9 68 2.7 W 46 65 25 35 1017.4 1017.4 2.2
26/05:30pm 11.8 2.5 7.7 76 2.0 W 46 59 25 32 1017.3 1017.3 2.2
26/05:00pm 11.8 2.2 7.9 77 1.9 W 48 69 26 37 1017.0 1017.0 2.2
26/04:54pm 11.3 1.3 8.0 80 1.6 W 50 69 27 37 1017.0 1017.0 2.2
26/04:30pm 12.7 2.0 6.5 66 3.0 W 52 63 28 34 1016.8 1016.8 2.2
26/04:00pm 12.7 3.4 7.6 71 2.5 W 46 69 25 37 1016.5 1016.5 2.2
26/03:30pm 11.3 0.2 8.2 81 1.5 W 56 80 30 43 1016.4 1016.4 2.2
26/03:22pm 12.7 2.0 6.5 66 3.0 W 52 72 28 39 1016.2 1016.2 2.2
26/03:00pm 13.2 2.9 6.5 64 3.2 W 50 61 27 33 1016.2 1016.2 2.2
26/02:51pm 13.1 4.1 6.5 64 3.2 WSW 43 61 23 33 1016.1 1016.1 2.2
26/02:30pm 13.2 4.4 7.2 67 2.9 WSW 43 54 23 29 1015.9 1015.9 2.2
26/02:00pm 12.2 3.3 7.5 73 2.3 WSW 44 65 24 35 1015.9 1015.9 2.2
26/01:30pm 12.5 3.0 6.8 68 2.7 WSW 46 65 25 35 1015.4 1015.4 2.2
26/01:06pm 12.7 3.8 7.0 68 2.8 WSW 43 61 23 33 1015.3 1015.3 2.2
26/01:00pm 12.9 4.7 8.4 74 2.2 WSW 41 54 22 29 1015.3 1015.3 2.2
26/12:42pm 11.5 3.7 8.2 80 1.6 WSW 39 50 21 27 1015.3 1015.3 2.2
26/12:30pm 11.0 1.2 8.8 86 1.1 W 50 65 27 35 1014.8 1014.8 2.2
26/12:22pm 10.5 1.5 7.4 81 1.5 W 44 63 24 34 1014.7 1014.7 2.2
26/12:00pm 10.5 1.2 7.7 83 1.4 W 46 61 25 33 1014.7 1014.7 2.2
26/11:30am 10.8 2.2 8.2 84 1.3 W 43 57 23 31 1014.5 1014.5 1.0
26/11:05am 10.0 1.3 7.6 85 1.2 WSW 43 69 23 37 1014.0 1014.0 0.8
26/11:00am 10.3 2.0 7.9 85 1.2 WSW 41 54 22 29 1014.1 1014.1 0.6
26/10:30am 12.8 3.2 7.9 72 2.4 W 48 63 26 34 1013.5 1013.5 0.6
26/10:00am 10.8 1.9 7.5 80 1.6 W 44 67 24 36 1013.2 1013.2 0.6
26/09:30am 10.0 0.5 8.3 89 0.8 W 48 67 26 36 1013.0 1013.0 0.4
26/09:03am 8.6 -3.0 6.6 87 0.9 WSW 57 76 31 41 1012.4 1012.4 0.2
26/09:00am 8.4 -3.3 6.2 86 1.0 WSW 57 70 31 38 1012.4 1012.4 3.0
26/08:37am 10.1 1.1 6.3 77 1.8 W 43 61 23 33 1012.2 1012.2 2.2
26/08:30am 11.2 2.2 6.3 72 2.3 W 43 57 23 31 1011.8 1011.8 2.2
26/08:00am 11.6 2.2 4.6 62 3.2 W 43 61 23 33 1011.0 1011.0 2.2
26/07:52am 11.5 2.3 5.4 66 2.8 W 43 61 23 33 1010.9 1010.9 2.2
26/07:30am 11.3 1.3 4.3 62 3.2 W 46 59 25 32 1010.6 1010.6 2.2
26/07:25am 11.2 2.0 3.7 60 3.3 W 41 59 22 32 1010.5 1010.5 2.2
26/07:19am 11.3 3.3 3.6 59 3.4 W 35 44 19 24 1010.4 1010.4 2.2
26/07:05am 11.2 -0.7 4.2 62 3.1 W 56 74 30 40 1010.0 1010.0 2.2
26/07:00am 11.0 -1.5 4.0 62 3.1 W 59 74 32 40 1010.0 1010.0 2.2
26/06:57am 10.8 -2.9 3.6 61 3.2 W 65 74 35 40 1009.9 1009.9 2.2
26/06:30am 10.6 1.4 5.4 70 2.4 W 43 61 23 33 1009.8 1009.8 2.2
26/06:26am 10.4 1.5 5.0 69 2.5 W 41 59 22 32 1009.9 1009.9 2.2
26/06:00am 10.3 0.5 3.6 63 2.9 W 44 57 24 31 1009.4 1009.4 2.2
26/05:35am 10.1 0.6 4.0 66 2.7 W 43 61 23 33 1009.1 1009.1 2.2
26/05:30am 9.9 0.9 4.7 70 2.3 W 41 56 22 30 1009.1 1009.1 2.2
26/05:00am 9.5 -0.3 5.1 74 2.0 W 46 65 25 35 1008.7 1008.7 2.2
26/04:49am 10.2 1.2 4.8 69 2.4 W 41 59 22 32 1008.7 1008.7 2.2
26/04:30am 10.3 2.2 5.1 70 2.4 W 37 50 20 27 1008.3 1008.3 2.2
26/04:00am 10.4 0.5 5.0 69 2.5 W 46 65 25 35 1007.9 1007.9 2.2
26/03:34am 10.1 -0.7 4.3 67 2.6 W 50 72 27 39 1007.8 1007.8 2.2
26/03:30am 10.3 0.0 4.7 68 2.5 W 48 65 26 35 1007.9 1007.9 2.2
26/03:00am 10.0 -0.2 6.9 81 1.5 W 50 69 27 37 1007.8 1007.8 2.2
26/02:30am 10.3 -2.1 6.3 76 1.9 W 61 82 33 44 1007.1 1007.1 2.2
26/02:14am 10.1 -0.2 6.6 79 1.6 W 50 69 27 37 1007.4 1007.4 2.2
26/02:00am 10.3 0.7 8.1 86 1.1 W 48 63 26 34 1007.6 1007.6 2.2
26/01:34am 10.2 -0.2 7.6 84 1.2 W 52 74 28 40 1007.2 1007.2 2.2
26/01:30am 10.3 0.3 7.9 85 1.2 W 50 65 27 35 1007.4 1007.4 2.2
26/01:11am 10.7 5.0 8.3 85 1.2 W 28 46 15 25 1008.0 1008.0 1.6
26/01:00am 11.2 5.6 8.6 84 1.3 WNW 28 35 15 19 1007.7 1007.7 0.8
26/12:57am 11.2 5.5 8.2 82 1.5 WNW 28 46 15 25 1007.7 1007.7 0.6
26/12:30am 12.0 5.0 6.9 71 2.4 NW 33 46 18 25 1007.4 1007.4 0.2
26/12:00am 11.7 4.6 6.6 71 2.4 NW 33 44 18 24 1007.9 1007.9 0.2
 
Date/Time
EDT
Tmp

°C
App
Tmp
°C
Dew
Point
°C
Rel
Hum
%
Delta-T

°C
Wind Press
QNH
hPa
Press
MSL
hPa
Rain
since
9 am
mm
Dir
 
Spd
km/h
Gust
km/h
Spd
kts
Gust
kts
25/11:30pm 11.8 4.0 6.5 70 2.5 NW 37 46 20 25 1008.2 1008.2 0.2
25/11:00pm 11.9 3.2 6.0 67 2.8 NW 41 54 22 29 1008.5 1008.5 0.2
25/10:31pm 11.6 3.6 5.7 67 2.7 WNW 37 56 20 30 1009.0 1009.0 0.2
25/10:30pm 11.6 3.2 5.7 67 2.7 WNW 39 50 21 27 1009.0 1009.0 0.2
25/10:00pm 11.4 3.1 6.1 70 2.5 NW 39 52 21 28 1009.3 1009.3 0.2
25/09:30pm 11.5 3.8 5.4 66 2.8 NW 35 50 19 27 1009.4 1009.4 0.2
25/09:00pm 11.4 4.1 5.3 66 2.8 NW 33 43 18 23 1009.3 1009.3 0.2
25/08:32pm 11.5 3.9 5.8 68 2.7 WNW 35 54 19 29 1009.3 1009.3 0.2
25/08:30pm 11.4 3.7 5.5 67 2.7 WNW 35 50 19 27 1009.2 1009.2 0.2
25/08:00pm 11.6 4.8 5.3 65 2.9 WNW 30 37 16 20 1009.3 1009.3 0.2
25/07:30pm 11.9 4.6 4.6 61 3.3 W 32 41 17 22 1009.3 1009.3 0.2
25/07:19pm 11.7 4.2 4.7 62 3.2 W 33 52 18 28 1009.2 1009.2 0.2
25/07:00pm 11.5 4.2 5.4 66 2.8 WNW 33 44 18 24 1009.0 1009.0 0.2
25/06:30pm 11.8 5.4 5.2 64 3.0 W 28 35 15 19 1008.9 1008.9 0.2
25/06:00pm 12.1 3.9 6.4 68 2.7 W 39 52 21 28 1008.5 1008.5 0.2
25/05:32pm 12.1 3.2 6.8 70 2.5 W 43 61 23 33 1008.3 1008.3 0.2
25/05:30pm 11.9 2.5 7.0 72 2.4 W 46 61 25 33 1008.4 1008.4 0.2
25/05:20pm 12.4 4.1 6.2 66 2.9 WSW 39 56 21 30 1008.3 1008.3 0.2
25/05:00pm 13.6 6.5 5.3 57 3.9 W 32 37 17 20 1008.2 1008.2 0.2
25/04:30pm 11.5 1.3 6.8 73 2.2 W 50 69 27 37 1007.8 1007.8 0.2
25/04:12pm 12.9 5.1 6.7 66 3.0 W 37 63 20 34 1007.7 1007.7 0.2
25/04:00pm 12.2 3.1 6.9 70 2.6 W 44 61 24 33 1007.5 1007.5 0.2
25/03:30pm 10.9 2.3 8.0 82 1.4 WSW 43 65 23 35 1007.5 1007.5 0.0
25/03:00pm 13.0 3.8 6.4 64 3.2 W 44 67 24 36 1006.9 1006.9 0.0
25/02:44pm 11.5 0.3 8.2 80 1.6 W 57 76 31 41 1007.0 1007.0 0.0
25/02:30pm 11.6 0.3 7.9 78 1.8 WSW 57 74 31 40 1006.8 1006.8 0.0
25/02:23pm 12.9 2.6 6.5 65 3.1 W 50 70 27 38 1006.7 1006.7 0.0
25/02:00pm 13.3 3.2 5.9 61 3.5 W 48 63 26 34 1006.5 1006.5 0.0
25/01:30pm 13.4 2.7 6.5 63 3.3 W 52 65 28 35 1006.4 1006.4 0.0
25/01:00pm 12.1 0.8 7.0 71 2.5 WSW 56 74 30 40 1006.2 1006.2 0.0
25/12:30pm 14.9 5.8 7.0 59 3.9 W 44 65 24 35 1006.2 1006.2 0.0
25/12:01pm 15.0 5.3 7.5 61 3.7 W 48 67 26 36 1006.1 1006.1 0.0
25/12:00pm 14.5 4.3 6.8 60 3.8 W 50 67 27 36 1006.1 1006.1 0.0
25/11:34am 13.6 2.8 6.2 61 3.5 W 52 76 28 41 1005.6 1005.6 0.0
25/11:30am 14.1 4.0 7.4 64 3.3 W 50 67 27 36 1005.6 1005.6 0.0
25/11:00am 12.9 2.8 7.6 70 2.6 WSW 50 59 27 32 1005.6 1005.6 0.0
25/10:37am 13.5 2.0 6.4 62 3.4 W 56 74 30 40 1005.2 1005.2 0.0
25/10:30am 13.4 1.6 5.6 59 3.7 W 57 70 31 38 1005.0 1005.0 0.0
25/10:00am 13.2 1.8 6.8 65 3.1 W 56 76 30 41 1005.2 1005.2 0.0
25/09:30am 12.0 2.7 6.1 67 2.8 W 44 67 24 36 1005.1 1005.1 0.0
25/09:06am 12.2 1.8 6.0 66 2.9 W 50 69 27 37 1004.8 1004.8 0.0
25/09:00am 12.1 0.3 5.7 65 3.0 W 57 70 31 38 1004.6 1004.6 11.4
25/08:55am 12.4 -0.3 6.7 68 2.7 W 63 82 34 44 1004.5 1004.4 11.4
25/08:30am 11.9 -2.2 5.5 65 3.0 W 69 82 37 44 1003.5 1003.4 11.4
25/08:25am 11.8 -2.3 5.4 65 3.0 W 69 76 37 41 1003.3 1003.2 11.4
25/08:23am 11.9 1.5 6.0 67 2.8 W 50 76 27 41 1003.4 1003.3 11.4
25/08:00am 11.6 0.6 6.7 72 2.3 W 54 70 29 38 1003.4 1003.3 11.4
25/07:30am 10.8 1.0 7.1 78 1.8 W 48 67 26 36 1002.6 1002.5 11.4
25/07:00am 10.6 0.0 7.1 79 1.7 W 52 70 28 38 1002.2 1002.1 11.4
25/06:44am 10.0 -1.1 6.3 78 1.7 W 54 76 29 41 1001.7 1001.7 11.4
25/06:30am 11.1 0.8 6.5 73 2.2 W 50 67 27 36 1001.4 1001.4 11.4
25/06:00am 10.5 -0.5 6.6 77 1.8 W 54 67 29 36 1000.8 1000.8 11.4
25/05:30am 10.5 -0.7 7.7 83 1.4 W 56 69 30 37 1000.5 1000.5 11.2
25/05:00am 11.3 1.1 7.0 75 2.1 W 50 57 27 31 1000.1 1000.1 11.0
25/04:30am 10.5 0.3 6.8 78 1.8 W 50 61 27 33 999.7 999.7 11.0
25/04:14am 10.1 2.1 7.3 83 1.3 W 39 63 21 34 999.8 999.8 11.0
25/04:00am 10.0 1.7 7.6 85 1.2 W 41 50 22 27 999.6 999.6 11.0
25/03:32am 10.6 1.9 7.5 81 1.5 W 43 61 23 33 999.6 999.6 10.2
25/03:30am 10.7 2.6 7.2 79 1.7 W 39 50 21 27 999.6 999.6 9.8
25/03:00am 10.8 5.3 7.5 80 1.6 WNW 26 35 14 19 999.7 999.7 9.8
25/02:30am 11.2 4.2 6.7 74 2.1 WNW 33 48 18 26 999.8 999.8 9.8
25/02:00am 11.2 3.7 6.3 72 2.3 WNW 35 52 19 28 999.9 999.9 9.8
25/01:55am 11.4 4.4 5.9 69 2.6 WNW 32 50 17 27 999.9 999.9 9.8
25/01:45am 11.7 5.3 5.3 65 3.0 NW 28 44 15 24 999.9 999.9 9.8
25/01:30am 11.2 7.6 4.9 65 2.9 NNW 13 20 7 11 1000.5 1000.5 9.8
25/01:14am 11.7 7.6 4.4 61 3.3 NW 15 20 8 11 1000.2 1000.2 9.8
25/01:00am 11.9 3.4 5.1 63 3.2 WNW 39 61 21 33 1000.2 1000.2 9.8
25/12:59am 11.9 3.4 5.1 63 3.1 WNW 39 61 21 33 1000.2 1000.2 9.8
25/12:42am 11.8 4.4 3.8 58 3.6 NW 32 50 17 27 1000.2 1000.2 9.8
25/12:30am 11.6 5.8 4.3 61 3.3 W 24 30 13 16 1000.6 1000.6 9.8
25/12:00am 11.7 4.8 4.4 61 3.3 WNW 30 50 16 27 1000.5 1000.5 9.8
 
Date/Time
EDT
Tmp

°C
App
Tmp
°C
Dew
Point
°C
Rel
Hum
%
Delta-T

°C
Wind Press
QNH
hPa
Press
MSL
hPa
Rain
since
9 am
mm
Dir
 
Spd
km/h
Gust
km/h
Spd
kts
Gust
kts
24/11:30pm 11.8 3.4 5.7 66 2.8 W 39 52 21 28 1000.5 1000.5 9.8
24/11:16pm 11.6 4.3 4.3 61 3.3 W 32 43 17 23 1000.8 1000.8 9.8
24/11:00pm 11.2 8.7 3.7 60 3.3 NNE 6 24 3 13 1001.4 1001.4 9.8

Latest Capital City Observations: Canberra | Sydney | Melbourne | Brisbane | Adelaide | Perth | Hobart | Darwin

Other Formats:

Comma delimited format used in spreadsheet applications
http://www.bom.gov.au/fwo/IDT60901/IDT60901.95967.axf

JavaScript Object Notation format (JSON) in row-major order
http://www.bom.gov.au/fwo/IDT60901/IDT60901.95967.json